Time;durP1;ratioP1;P1;durP2;ratioP2;P2;SDS_P1;SDS_P2;PMS_P1;PMS_P2;Temp;Humidity;BMP_temperature;BMP_pressure;BME280_temperature;BME280_humidity;BME280_pressure;Samples;Min_cycle;Max_cycle;Signal;HPM_P1;HPM_P2
2022/02/14 00:02:00;;;;;;;10.73;7.82;;;4.10;1.00;;;;;;6250620;22;20204;-86
2022/02/14 00:04:34;;;;;;;12.07;7.75;;;4.10;1.00;;;;;;6254384;22;20204;-87
2022/02/14 00:07:04;;;;;;;9.63;7.63;;;4.10;1.00;;;;;;6253452;22;20228;-86
2022/02/14 00:09:39;;;;;;;10.95;7.65;;;4.10;1.00;;;;;;6221467;22;20267;-84
2022/02/14 00:12:11;;;;;;;9.48;7.57;;;4.10;1.00;;;;;;6227215;22;20181;-84
2022/02/14 00:14:38;;;;;;;17.00;9.20;;;4.20;1.00;;;;;;6229191;22;20279;-85
2022/02/14 00:17:18;;;;;;;10.10;7.88;;;4.20;1.00;;;;;;6235757;22;20879;-85
2022/02/14 00:19:54;;;;;;;11.57;7.15;;;4.10;1.00;;;;;;6218317;22;20185;-85
2022/02/14 00:22:25;;;;;;;12.60;7.53;;;4.10;1.00;;;;;;6233872;22;20197;-85
2022/02/14 00:24:55;;;;;;;7.20;6.30;;;4.10;1.00;;;;;;6243337;22;20189;-85
2022/02/14 00:27:27;;;;;;;11.77;7.00;;;4.10;1.00;;;;;;6242177;22;20630;-85
2022/02/14 00:30:05;;;;;;;9.27;7.10;;;4.10;1.00;;;;;;6254910;22;20201;-85
2022/02/14 00:32:37;;;;;;;8.73;7.10;;;4.10;1.00;;;;;;6216357;22;20177;-85
2022/02/14 00:35:13;;;;;;;8.45;7.03;;;4.00;1.00;;;;;;6242159;22;20203;-84
2022/02/14 00:37:40;;;;;;;7.85;6.85;;;4.00;1.00;;;;;;6244732;22;20223;-84
2022/02/14 00:40:14;;;;;;;8.57;6.90;;;4.00;1.00;;;;;;6245065;22;20193;-84
2022/02/14 00:42:45;;;;;;;8.13;6.47;;;4.00;1.00;;;;;;6245774;22;20253;-84
2022/02/14 00:45:12;;;;;;;8.68;7.13;;;4.10;1.00;;;;;;6217869;22;20193;-84
2022/02/14 00:47:43;;;;;;;7.70;6.88;;;4.10;1.00;;;;;;6215544;22;20197;-84
2022/02/14 00:50:17;;;;;;;8.75;7.25;;;4.10;1.00;;;;;;6244492;22;20184;-84
2022/02/14 00:52:52;;;;;;;6.85;6.15;;;4.10;1.00;;;;;;6217958;22;20197;-85
2022/02/14 00:55:21;;;;;;;8.82;7.43;;;4.10;1.00;;;;;;6215666;23;20272;-85
2022/02/14 00:57:50;;;;;;;10.32;7.30;;;4.10;1.00;;;;;;6215275;23;20255;-84
2022/02/14 01:00:19;;;;;;;8.88;7.38;;;4.10;1.00;;;;;;6214945;23;20689;-84
2022/02/14 01:02:46;;;;;;;9.10;6.53;;;4.10;1.00;;;;;;6189298;23;20202;-84
2022/02/14 01:05:13;;;;;;;11.25;6.90;;;4.10;1.00;;;;;;6186629;23;20276;-84
2022/02/14 01:07:41;;;;;;;9.23;7.60;;;4.00;1.00;;;;;;6218864;23;20225;-84
2022/02/14 01:10:10;;;;;;;13.38;6.95;;;4.00;1.00;;;;;;6197068;23;20220;-84
2022/02/14 01:12:38;;;;;;;7.13;6.32;;;4.00;1.00;;;;;;6192358;23;20201;-85
2022/02/14 01:15:07;;;;;;;9.32;7.05;;;4.00;1.00;;;;;;6212178;22;20480;-84
2022/02/14 01:17:35;;;;;;;8.40;7.22;;;3.90;1.00;;;;;;6197793;23;20206;-84
2022/02/14 01:20:03;;;;;;;9.65;6.20;;;3.90;1.00;;;;;;6223725;23;20459;-84
2022/02/14 01:22:30;;;;;;;9.68;6.68;;;3.80;1.00;;;;;;6221641;23;20193;-83
2022/02/14 01:25:00;;;;;;;9.50;8.60;;;3.80;1.00;;;;;;6220671;22;20280;-84
2022/02/14 01:27:29;;;;;;;9.07;7.30;;;3.80;1.00;;;;;;6196059;23;20217;-84
2022/02/14 01:29:57;;;;;;;9.18;7.55;;;3.80;1.00;;;;;;6219659;23;20192;-84
2022/02/14 01:32:34;;;;;;;10.75;7.32;;;3.70;1.00;;;;;;6190311;23;20198;-85
2022/02/14 01:35:07;;;;;;;8.23;7.32;;;3.70;1.00;;;;;;6190776;23;20189;-84
2022/02/14 01:37:40;;;;;;;7.57;6.80;;;3.60;1.00;;;;;;6191656;23;21349;-84
2022/02/14 01:40:13;;;;;;;9.20;7.50;;;3.60;1.00;;;;;;6179788;23;20797;-86
2022/02/14 01:42:49;;;;;;;9.90;7.47;;;3.60;1.00;;;;;;6186860;23;20197;-84
2022/02/14 01:45:22;;;;;;;8.27;6.85;;;3.60;1.00;;;;;;6189510;23;20194;-84
2022/02/14 01:47:50;;;;;;;9.45;7.70;;;3.50;1.00;;;;;;6216980;23;20217;-83
2022/02/14 01:50:18;;;;;;;8.48;7.57;;;3.50;1.00;;;;;;6231124;23;20198;-84
2022/02/14 01:52:48;;;;;;;8.65;7.20;;;3.50;1.00;;;;;;6192735;23;20201;-83
2022/02/14 01:55:17;;;;;;;7.78;6.97;;;3.50;1.00;;;;;;6211828;23;20200;-84
2022/02/14 01:57:44;;;;;;;8.93;6.10;;;3.50;1.00;;;;;;6184288;23;20288;-84
2022/02/14 02:00:17;;;;;;;12.80;7.53;;;3.40;1.00;;;;;;6215972;23;20213;-84
2022/02/14 02:02:44;;;;;;;9.15;7.07;;;3.40;1.00;;;;;;6187748;23;20215;-84
2022/02/14 02:05:12;;;;;;;11.32;8.32;;;3.40;1.00;;;;;;6213681;23;20212;-84
2022/02/14 02:07:41;;;;;;;9.95;7.13;;;3.40;1.00;;;;;;6188920;23;20193;-85
2022/02/14 02:10:12;;;;;;;9.38;7.45;;;3.30;1.00;;;;;;6188871;23;20246;-85
2022/02/14 02:12:52;;;;;;;9.38;7.50;;;3.30;1.00;;;;;;6185843;23;20277;-84
2022/02/14 02:15:25;;;;;;;12.05;7.32;;;3.30;1.00;;;;;;6189108;23;20252;-84
2022/02/14 02:17:56;;;;;;;10.35;7.60;;;3.30;1.00;;;;;;6215701;23;20189;-83
2022/02/14 02:20:29;;;;;;;9.43;7.00;;;3.30;1.00;;;;;;6214180;23;20193;-84
2022/02/14 02:22:58;;;;;;;9.95;6.78;;;3.30;1.00;;;;;;6214159;23;20205;-84
2022/02/14 02:25:30;;;;;;;11.23;6.95;;;3.30;1.00;;;;;;6189802;23;20648;-84
2022/02/14 02:28:00;;;;;;;9.25;6.93;;;3.30;1.00;;;;;;6220869;23;20185;-84
2022/02/14 02:30:29;;;;;;;8.57;6.80;;;3.30;1.00;;;;;;6216093;23;20189;-85
2022/02/14 02:32:56;;;;;;;8.20;6.50;;;3.30;1.00;;;;;;6211640;23;20198;-84
2022/02/14 02:35:25;;;;;;;8.05;6.30;;;3.30;1.00;;;;;;6211215;22;20233;-84
2022/02/14 02:37:52;;;;;;;7.65;6.85;;;3.30;1.00;;;;;;6194526;23;20609;-83
2022/02/14 02:40:19;;;;;;;8.93;6.75;;;3.30;1.00;;;;;;6210177;23;20200;-84
2022/02/14 02:42:49;;;;;;;10.88;6.65;;;3.30;1.00;;;;;;6239384;22;20170;-83
2022/02/14 02:45:21;;;;;;;9.20;7.32;;;3.30;1.00;;;;;;6226228;22;20202;-84
2022/02/14 02:47:51;;;;;;;8.88;7.00;;;3.30;1.00;;;;;;6196250;22;20245;-84
2022/02/14 02:50:20;;;;;;;8.70;5.90;;;3.30;1.00;;;;;;6214338;23;20193;-85
2022/02/14 02:52:50;;;;;;;7.25;6.55;;;3.30;1.00;;;;;;6223516;23;20248;-83
2022/02/14 02:55:18;;;;;;;8.18;5.80;;;3.30;1.00;;;;;;6219202;23;21215;-84
2022/02/14 02:58:00;;;;;;;9.65;7.15;;;3.30;1.00;;;;;;6189661;23;20212;-84
2022/02/14 03:00:35;;;;;;;7.70;6.20;;;3.30;1.00;;;;;;6186890;23;20189;-86
2022/02/14 03:03:07;;;;;;;8.35;6.13;;;3.30;1.00;;;;;;6188831;23;20190;-83
2022/02/14 03:05:36;;;;;;;9.05;6.50;;;3.30;1.00;;;;;;6214094;22;20205;-83
2022/02/14 03:08:08;;;;;;;9.88;6.10;;;3.30;1.00;;;;;;6213199;23;20193;-84
2022/02/14 03:10:44;;;;;;;6.53;5.75;;;3.30;1.00;;;;;;6189374;23;20961;-84
2022/02/14 03:13:17;;;;;;;8.55;6.35;;;3.30;1.00;;;;;;6189194;23;20193;-84
2022/02/14 03:15:48;;;;;;;7.63;5.78;;;3.30;1.00;;;;;;6188682;23;20655;-84
2022/02/14 03:18:17;;;;;;;7.10;5.43;;;3.30;1.00;;;;;;6188319;23;20201;-84
2022/02/14 03:20:45;;;;;;;7.38;5.80;;;3.30;1.00;;;;;;6215517;23;20215;-85
2022/02/14 03:23:12;;;;;;;7.68;6.57;;;3.40;1.00;;;;;;6188951;23;20780;-84
2022/02/14 03:25:45;;;;;;;8.60;6.10;;;3.40;1.00;;;;;;6188133;23;20212;-84
2022/02/14 03:28:33;;;;;;;7.30;6.30;;;3.40;1.00;;;;;;6217798;23;20264;-86
2022/02/14 03:31:11;;;;;;;10.80;6.75;;;3.40;1.00;;;;;;6190158;23;20213;-84
2022/02/14 03:33:43;;;;;;;7.75;6.45;;;3.40;1.00;;;;;;6191311;22;20217;-85
2022/02/14 03:36:18;;;;;;;9.20;6.53;;;3.40;1.00;;;;;;6187709;23;20229;-84
2022/02/14 03:38:59;;;;;;;7.60;6.00;;;3.40;1.00;;;;;;6190996;23;20296;-83
2022/02/14 03:41:30;;;;;;;8.90;6.70;;;3.50;1.00;;;;;;6216524;23;20570;-84
2022/02/14 03:44:06;;;;;;;7.90;6.13;;;3.50;1.00;;;;;;6190424;23;20535;-84
2022/02/14 03:46:35;;;;;;;9.88;6.45;;;3.50;1.00;;;;;;6193282;23;20186;-84
2022/02/14 03:49:04;;;;;;;9.02;6.85;;;3.60;1.00;;;;;;6221145;23;20204;-86
2022/02/14 03:51:31;;;;;;;7.03;5.82;;;3.60;1.00;;;;;;6192589;23;20288;-86
2022/02/14 03:53:58;;;;;;;8.45;6.70;;;3.70;1.00;;;;;;6217766;23;20256;-86
2022/02/14 03:56:25;;;;;;;8.02;6.30;;;3.70;1.00;;;;;;6227797;23;20193;-86
2022/02/14 03:58:52;;;;;;;9.10;6.18;;;3.70;1.00;;;;;;6221320;23;20205;-87
2022/02/14 04:01:22;;;;;;;8.25;6.68;;;3.70;1.00;;;;;;6187268;23;20293;-86
2022/02/14 04:03:49;;;;;;;6.68;5.57;;;3.70;1.00;;;;;;6217417;23;20197;-87
2022/02/14 04:06:16;;;;;;;7.95;5.45;;;3.70;1.00;;;;;;6218940;23;20272;-88
2022/02/14 04:08:43;;;;;;;8.30;5.63;;;3.70;1.00;;;;;;6192620;23;20193;-87
2022/02/14 04:11:10;;;;;;;6.88;6.18;;;3.70;1.00;;;;;;6219116;23;20284;-87
2022/02/14 04:13:37;;;;;;;5.85;5.10;;;3.80;1.00;;;;;;6194193;22;20190;-86
2022/02/14 04:16:09;;;;;;;6.47;5.50;;;3.80;1.00;;;;;;6223378;23;20193;-87
2022/02/14 04:18:39;;;;;;;7.45;5.35;;;3.90;1.00;;;;;;6196727;23;20205;-88
2022/02/14 04:21:08;;;;;;;6.60;5.28;;;3.80;1.00;;;;;;6194791;23;20320;-85
2022/02/14 04:23:36;;;;;;;7.95;6.88;;;3.90;1.00;;;;;;6207174;22;20208;-85
2022/02/14 04:26:03;;;;;;;7.25;5.90;;;3.90;1.00;;;;;;6237797;22;20197;-85
2022/02/14 04:28:30;;;;;;;6.82;5.25;;;3.90;1.00;;;;;;6214594;22;20200;-85
2022/02/14 04:30:59;;;;;;;6.55;4.78;;;3.90;1.00;;;;;;6223326;23;20803;-86
2022/02/14 04:33:37;;;;;;;7.88;5.55;;;4.00;1.00;;;;;;6224934;23;20198;-86
2022/02/14 04:36:06;;;;;;;8.70;5.25;;;4.00;1.00;;;;;;6194445;23;20970;-86
2022/02/14 04:38:33;;;;;;;8.45;6.10;;;4.00;1.00;;;;;;6222179;23;20206;-87
2022/02/14 04:41:00;;;;;;;7.43;5.60;;;3.90;1.00;;;;;;6220909;23;20189;-86
2022/02/14 04:43:27;;;;;;;6.70;5.57;;;3.90;1.00;;;;;;6222155;23;20237;-86
2022/02/14 04:45:55;;;;;;;8.00;5.68;;;3.90;1.00;;;;;;6192415;23;20198;-87
2022/02/14 04:48:23;;;;;;;7.75;6.43;;;3.90;1.00;;;;;;6190479;23;20200;-84
2022/02/14 04:50:50;;;;;;;7.15;6.15;;;3.90;1.00;;;;;;6194517;23;20189;-84
2022/02/14 04:53:23;;;;;;;7.47;6.15;;;3.90;1.00;;;;;;6192268;23;20202;-85
2022/02/14 04:55:50;;;;;;;6.60;5.78;;;3.90;1.00;;;;;;6193039;23;20219;-85
2022/02/14 04:58:20;;;;;;;8.15;5.95;;;3.80;1.00;;;;;;6218322;23;20824;-85
2022/02/14 05:00:49;;;;;;;7.03;5.60;;;3.90;1.00;;;;;;6219603;23;20189;-86
2022/02/14 05:03:19;;;;;;;8.18;6.22;;;3.90;1.00;;;;;;6190784;23;20196;-85
2022/02/14 05:05:46;;;;;;;7.05;6.35;;;3.90;1.00;;;;;;6199316;23;20232;-86
2022/02/14 05:08:13;;;;;;;9.15;6.30;;;3.80;1.00;;;;;;6233929;22;20197;-85
2022/02/14 05:10:41;;;;;;;9.25;6.40;;;3.80;1.00;;;;;;6231823;23;20248;-86
2022/02/14 05:13:13;;;;;;;7.70;6.57;;;3.80;1.00;;;;;;6227165;23;20213;-85
2022/02/14 05:15:48;;;;;;;11.82;6.57;;;3.80;1.00;;;;;;6216054;23;20189;-86
2022/02/14 05:18:15;;;;;;;7.75;6.40;;;3.80;1.00;;;;;;6187566;23;20210;-86
2022/02/14 05:20:45;;;;;;;9.18;6.75;;;3.80;1.00;;;;;;6213090;23;20267;-84
2022/02/14 05:23:13;;;;;;;9.75;6.72;;;3.80;1.00;;;;;;6212678;23;20257;-84
2022/02/14 05:25:46;;;;;;;9.75;6.32;;;3.80;1.00;;;;;;6212842;23;20196;-86
2022/02/14 05:28:13;;;;;;;7.82;6.13;;;3.80;1.00;;;;;;6219237;23;20187;-85
2022/02/14 05:30:41;;;;;;;8.50;6.00;;;3.70;1.00;;;;;;6212991;23;20259;-86
2022/02/14 05:33:15;;;;;;;9.60;6.22;;;3.80;1.00;;;;;;6217538;23;20212;-87
2022/02/14 05:35:47;;;;;;;7.57;5.65;;;3.80;1.00;;;;;;6215704;23;20252;-85
2022/02/14 05:38:41;;;;;;;6.88;6.07;;;3.80;1.00;;;;;;6186927;23;20220;-87
2022/02/14 05:41:21;;;;;;;8.13;6.35;;;3.80;1.00;;;;;;6210212;23;20197;-87
2022/02/14 05:44:01;;;;;;;8.32;6.57;;;3.80;1.00;;;;;;6188714;22;20197;-86
2022/02/14 05:46:42;;;;;;;7.32;6.50;;;3.80;1.00;;;;;;6214338;23;20193;-87
2022/02/14 05:52:32;;;;;;;7.68;6.32;;;3.70;1.00;;;;;;6237733;22;20693;-86
2022/02/14 05:55:12;;;;;;;9.02;6.07;;;3.70;1.00;;;;;;6241968;22;20392;-86
2022/02/14 06:01:07;;;;;;;9.13;5.95;;;3.70;1.00;;;;;;6241857;22;20189;-86
2022/02/14 06:03:48;;;;;;;11.10;6.60;;;3.70;1.00;;;;;;6241745;22;20182;-87
2022/02/14 06:06:32;;;;;;;7.70;6.10;;;3.70;1.00;;;;;;6194679;23;20208;-88
2022/02/14 06:09:11;;;;;;;7.68;6.50;;;3.70;1.00;;;;;;6217590;23;20178;-88
2022/02/14 06:11:40;;;;;;;8.43;6.65;;;3.70;1.00;;;;;;6220026;23;20212;-89
2022/02/14 06:14:22;;;;;;;8.00;6.40;;;3.80;1.00;;;;;;6193403;23;20198;-89
2022/02/14 06:16:49;;;;;;;11.93;7.70;;;3.80;1.00;;;;;;6194505;23;20194;-88
2022/02/14 06:30:28;;;;;;;8.32;7.00;;;3.70;1.00;;;;;;6100951;23;20244;-87
2022/02/14 06:33:29;;;;;;;;;;;;;;;;;;;;;
2022/02/14 07:47:40;;;;;;;9.40;5.82;;;4.60;1.00;;;;;;6123784;23;20194;-89
2022/02/14 07:50:23;;;;;;;9.88;6.40;;;4.80;1.00;;;;;;6134598;22;20232;-86
2022/02/14 07:52:58;;;;;;;11.20;6.35;;;4.90;1.00;;;;;;6255084;22;20231;-86
2022/02/14 07:55:49;;;;;;;8.77;5.90;;;5.00;1.00;;;;;;6231641;22;20211;-86
2022/02/14 08:43:59;;;;;;;6.47;5.80;;;6.90;1.00;;;;;;6224417;22;20205;-85
2022/02/14 08:47:09;;;;;;;6.05;5.43;;;7.20;1.00;;;;;;6222130;22;20192;-85
2022/02/14 08:49:48;;;;;;;7.25;5.68;;;7.60;1.00;;;;;;6230702;22;20244;-86
2022/02/14 08:52:18;;;;;;;9.50;5.55;;;8.00;1.00;;;;;;6253740;22;20188;-86
2022/02/14 08:54:51;;;;;;;6.55;5.18;;;8.50;1.00;;;;;;6252113;22;20189;-88
2022/02/14 08:57:28;;;;;;;8.55;5.45;;;8.60;1.00;;;;;;6256599;22;20175;-87
2022/02/14 09:00:24;;;;;;;5.63;5.10;;;8.70;1.00;;;;;;6252787;22;20220;-89
2022/02/14 09:09:20;;;;;;;7.30;6.60;;;9.20;1.00;;;;;;6090000;23;21551;-88
2022/02/14 09:12:19;;;;;;;7.40;5.40;;;9.50;1.00;;;;;;6249176;22;20191;-91
2022/02/14 09:15:19;;;;;;;9.32;6.05;;;9.50;1.00;;;;;;6234431;22;20232;-90
2022/02/14 09:18:36;;;;;;;;;;;;;;;;;;;;;
2022/02/14 09:21:55;;;;;;;8.40;5.05;;;9.40;1.00;;;;;;6259764;22;20182;-90
2022/02/14 09:39:58;;;;;;;6.23;5.13;;;10.90;1.00;;;;;;6214675;22;20505;-87
2022/02/14 09:42:26;;;;;;;7.67;4.53;;;11.40;1.00;;;;;;6225354;22;20407;-87
2022/02/14 09:45:26;;;;;;;6.97;4.37;;;12.20;1.00;;;;;;6224652;22;20491;-87
2022/02/14 09:48:20;;;;;;;8.43;4.60;;;13.40;1.00;;;;;;6228479;22;20400;-87
2022/02/14 09:51:09;;;;;;;6.10;4.40;;;13.90;1.00;;;;;;6224240;22;20376;-87
2022/02/14 09:53:55;;;;;;;5.17;4.33;;;14.10;1.00;;;;;;6250288;22;20411;-88
2022/02/14 09:56:36;;;;;;;4.93;3.97;;;13.70;1.00;;;;;;6258213;22;20405;-88
2022/02/14 10:00:00;;;;;;;5.00;3.80;;;13.20;1.00;;;;;;6227704;22;20622;-86
2022/02/14 10:02:32;;;;;;;6.83;4.70;;;12.40;1.00;;;;;;6193468;22;21416;-87
2022/02/14 10:05:18;;;;;;;5.10;3.93;;;12.20;1.00;;;;;;6231195;22;20414;-87
2022/02/14 10:08:10;;;;;;;5.30;3.80;;;12.40;1.00;;;;;;6229813;22;20408;-88
2022/02/14 10:10:52;;;;;;;5.10;3.90;;;12.40;1.00;;;;;;6234249;22;20373;-89
2022/02/14 10:48:14;;;;;;;3.50;2.80;;;14.10;1.00;;;;;;6257551;22;20432;-86
2022/02/14 10:50:41;;;;;;;6.20;3.77;;;14.00;1.00;;;;;;6225416;22;20427;-86
2022/02/14 10:53:07;;;;;;;4.83;3.60;;;14.20;1.00;;;;;;6247897;22;20472;-86
2022/02/14 10:55:42;;;;;;;4.40;3.03;;;14.30;1.00;;;;;;6252753;22;20423;-87
2022/02/14 10:58:10;;;;;;;6.63;3.43;;;14.00;1.00;;;;;;6247723;22;20367;-87
2022/02/14 11:00:45;;;;;;;5.00;3.50;;;14.70;1.00;;;;;;6225258;22;21035;-86
2022/02/14 11:03:18;;;;;;;5.60;3.50;;;15.40;1.00;;;;;;6224411;22;20551;-87
2022/02/14 11:06:00;;;;;;;5.80;4.30;;;15.80;1.00;;;;;;6262125;22;20375;-86
2022/02/14 11:08:37;;;;;;;5.30;4.13;;;16.50;1.00;;;;;;6252676;22;21520;-86
2022/02/14 11:11:11;;;;;;;5.67;3.53;;;17.00;1.00;;;;;;6221255;22;20871;-85
2022/02/14 11:13:58;;;;;;;6.80;4.37;;;17.50;1.00;;;;;;6222379;22;20510;-87
2022/02/14 11:16:28;;;;;;;6.30;4.23;;;17.50;1.00;;;;;;6245186;22;20411;-84
2022/02/14 11:18:58;;;;;;;6.80;4.13;;;17.00;1.00;;;;;;6223351;22;20425;-85
2022/02/14 11:21:27;;;;;;;7.80;4.27;;;16.60;1.00;;;;;;6249639;22;20408;-85
2022/02/14 11:26:38;;;;;;;3.80;3.10;;;17.10;1.00;;;;;;6282389;22;20390;-85
2022/02/14 11:29:19;;;;;;;6.20;3.73;;;17.60;1.00;;;;;;6270259;22;20849;-83
2022/02/14 11:32:00;;;;;;;4.00;3.30;;;17.60;1.00;;;;;;6281695;22;20398;-84
2022/02/14 11:34:56;;;;;;;5.00;3.90;;;17.70;1.00;;;;;;6304530;22;20476;-87
2022/02/14 11:37:24;;;;;;;5.60;3.47;;;17.40;1.00;;;;;;6261457;22;21711;-86
2022/02/14 11:40:28;;;;;;;5.00;3.53;;;17.20;1.00;;;;;;6282424;22;20460;-87
2022/02/14 11:43:19;;;;;;;5.30;3.43;;;17.50;1.00;;;;;;6283433;22;21365;-86
2022/02/14 11:46:18;;;;;;;3.87;3.20;;;17.90;1.00;;;;;;6268983;22;20437;-87
2022/02/14 11:49:15;;;;;;;5.20;4.03;;;18.20;1.00;;;;;;6254367;22;20497;-87
2022/02/14 11:51:50;;;;;;;7.17;3.27;;;19.10;1.00;;;;;;6277560;22;20425;-86
2022/02/14 11:54:36;;;;;;;5.87;3.43;;;19.20;1.00;;;;;;6281944;22;21507;-86
2022/02/14 11:57:29;;;;;;;5.47;3.83;;;18.90;1.00;;;;;;6283764;22;20410;-85
2022/02/14 12:00:24;;;;;;;4.97;3.53;;;18.70;1.00;;;;;;6256030;22;20403;-86
2022/02/14 12:03:16;;;;;;;4.60;3.60;;;18.70;1.00;;;;;;6286805;22;21189;-85
2022/02/14 12:05:45;;;;;;;6.30;3.43;;;18.60;1.00;;;;;;6296611;22;20367;-86
2022/02/14 12:08:19;;;;;;;4.03;3.63;;;18.80;1.00;;;;;;6282537;22;20881;-86
2022/02/14 12:10:55;;;;;;;3.93;2.70;;;19.10;1.00;;;;;;6282857;22;20359;-86
2022/02/14 12:13:27;;;;;;;3.97;3.60;;;18.70;1.00;;;;;;6283447;22;20387;-88
2022/02/14 12:21:43;;;;;;;4.23;3.20;;;19.30;1.00;;;;;;6299429;22;20410;-87
2022/02/14 12:24:30;;;;;;;4.10;3.50;;;19.40;1.00;;;;;;6272007;22;20476;-87
2022/02/14 12:27:05;;;;;;;4.10;3.13;;;19.70;1.00;;;;;;6260494;22;20408;-87
2022/02/14 12:29:40;;;;;;;5.63;3.27;;;19.70;1.00;;;;;;6287162;22;20891;-86
2022/02/14 12:32:18;;;;;;;5.27;2.90;;;20.70;1.00;;;;;;6289454;22;20993;-86
2022/02/14 12:34:46;;;;;;;4.80;3.33;;;22.20;1.00;;;;;;6283874;22;20402;-86
2022/02/14 12:37:16;;;;;;;3.97;3.10;;;23.00;1.00;;;;;;6280726;22;20403;-86
2022/02/14 12:39:46;;;;;;;4.90;3.00;;;23.20;1.00;;;;;;6283464;22;20408;-87
2022/02/14 12:42:24;;;;;;;4.70;3.40;;;23.20;1.00;;;;;;6284886;22;21210;-87
2022/02/14 12:44:55;;;;;;;4.60;3.30;;;23.20;1.00;;;;;;6283938;22;20400;-86
2022/02/14 12:47:25;;;;;;;4.87;3.53;;;22.60;1.00;;;;;;6282143;22;20390;-85
2022/02/14 12:50:10;;;;;;;5.83;2.60;;;22.20;1.00;;;;;;6280004;22;20936;-84
2022/02/14 12:52:37;;;;;;;6.10;3.13;;;20.60;1.00;;;;;;6282438;22;20493;-84
2022/02/14 12:55:06;;;;;;;6.10;3.60;;;20.10;1.00;;;;;;6282040;22;20392;-84
2022/02/14 12:57:46;;;;;;;3.77;3.40;;;20.10;1.00;;;;;;6251139;22;20490;-84
2022/02/14 13:00:31;;;;;;;5.50;3.57;;;20.70;1.00;;;;;;6279130;22;20400;-84
2022/02/14 13:03:00;;;;;;;3.90;3.10;;;20.80;1.00;;;;;;6281061;22;20411;-84
2022/02/14 13:05:28;;;;;;;3.83;3.10;;;20.80;1.00;;;;;;6283696;22;20407;-83
2022/02/14 13:07:55;;;;;;;4.23;3.70;;;20.00;1.00;;;;;;6284166;22;20482;-84
2022/02/14 13:10:23;;;;;;;4.13;3.43;;;19.40;1.00;;;;;;6285205;22;20395;-84
2022/02/14 13:12:58;;;;;;;4.43;3.70;;;19.00;1.00;;;;;;6285726;22;20439;-84
2022/02/14 13:15:24;;;;;;;4.33;3.40;;;18.80;1.00;;;;;;6281626;22;20464;-84
2022/02/14 13:17:51;;;;;;;4.30;3.53;;;18.90;1.00;;;;;;6281819;22;21213;-84
2022/02/14 13:20:18;;;;;;;4.20;3.37;;;18.50;1.00;;;;;;6283682;22;20419;-84
2022/02/14 13:22:44;;;;;;;9.13;3.40;;;18.10;1.00;;;;;;6285274;22;20449;-83
2022/02/14 13:25:25;;;;;;;4.57;3.50;;;17.20;1.00;;;;;;6285210;22;20550;-83
2022/02/14 13:27:57;;;;;;;5.53;3.70;;;17.10;1.00;;;;;;6285239;22;20408;-83
2022/02/14 13:30:25;;;;;;;6.73;3.40;;;17.20;1.00;;;;;;6283751;22;20505;-84
2022/02/14 13:32:53;;;;;;;6.60;3.70;;;18.00;1.00;;;;;;6286166;22;21215;-86
2022/02/14 13:35:21;;;;;;;5.00;3.17;;;19.20;1.00;;;;;;6285442;22;20414;-84
2022/02/14 13:37:53;;;;;;;3.43;3.10;;;20.10;1.00;;;;;;6286850;22;20374;-83
2022/02/14 13:40:27;;;;;;;5.77;3.37;;;19.60;1.00;;;;;;6285977;22;20530;-83
2022/02/14 13:42:58;;;;;;;4.00;3.20;;;18.60;1.00;;;;;;6288927;22;20371;-83
2022/02/14 13:45:26;;;;;;;3.70;3.00;;;17.80;1.00;;;;;;6286911;22;21183;-84
2022/02/14 13:48:15;;;;;;;7.97;3.70;;;17.40;1.00;;;;;;6291679;22;20397;-84
2022/02/14 13:50:43;;;;;;;5.40;3.33;;;17.00;1.00;;;;;;6286222;22;20414;-83
2022/02/14 13:53:21;;;;;;;5.10;3.73;;;16.70;1.00;;;;;;6286115;22;20393;-83
2022/02/14 13:56:05;;;;;;;6.20;3.37;;;16.20;1.00;;;;;;6292650;22;20940;-82
2022/02/14 13:58:36;;;;;;;5.60;3.50;;;15.70;1.00;;;;;;6290560;22;20393;-83
2022/02/14 14:01:20;;;;;;;4.90;3.23;;;15.50;1.00;;;;;;6290120;22;20411;-83
2022/02/14 14:03:50;;;;;;;4.40;3.60;;;15.50;1.00;;;;;;6292624;22;20357;-83
2022/02/14 14:06:22;;;;;;;5.27;3.67;;;15.30;1.00;;;;;;6287770;22;20464;-83
2022/02/14 14:08:51;;;;;;;4.93;3.23;;;15.00;1.00;;;;;;6286619;22;20387;-82
2022/02/14 14:11:30;;;;;;;4.93;3.10;;;14.90;1.00;;;;;;6284729;22;20406;-83
2022/02/14 14:14:01;;;;;;;3.67;3.10;;;14.90;1.00;;;;;;6284251;22;20435;-84
2022/02/14 14:16:28;;;;;;;3.20;2.73;;;14.90;1.00;;;;;;6283544;22;20353;-84
2022/02/14 14:18:55;;;;;;;6.50;3.80;;;14.70;1.00;;;;;;6256324;22;20479;-84
2022/02/14 14:21:23;;;;;;;4.63;2.90;;;14.60;1.00;;;;;;6282786;22;20411;-83
2022/02/14 14:23:51;;;;;;;4.33;2.93;;;14.50;1.00;;;;;;6257327;22;20412;-83
2022/02/14 14:26:20;;;;;;;6.03;2.80;;;14.40;1.00;;;;;;6257512;22;20520;-83
2022/02/14 14:28:50;;;;;;;4.60;3.20;;;14.50;1.00;;;;;;6282892;22;20395;-84
2022/02/14 14:31:18;;;;;;;3.40;3.10;;;14.50;1.00;;;;;;6292807;22;20419;-82
2022/02/14 14:33:45;;;;;;;6.33;3.57;;;14.40;1.00;;;;;;6292998;22;20446;-83
2022/02/14 14:36:12;;;;;;;4.70;3.40;;;14.30;1.00;;;;;;6283772;22;20431;-82
2022/02/14 14:38:41;;;;;;;5.83;3.87;;;14.30;1.00;;;;;;6288608;22;20490;-83
2022/02/14 14:41:08;;;;;;;7.30;4.07;;;14.30;1.00;;;;;;6288596;22;20472;-84
2022/02/14 14:43:35;;;;;;;6.30;3.97;;;14.20;1.00;;;;;;6288414;22;20395;-84
2022/02/14 14:46:03;;;;;;;4.23;2.93;;;14.10;1.00;;;;;;6291242;22;20451;-84
2022/02/14 14:48:30;;;;;;;5.00;3.60;;;14.00;1.00;;;;;;6301404;22;20391;-84
2022/02/14 14:50:56;;;;;;;5.90;3.67;;;14.10;1.00;;;;;;6305099;22;20363;-83
2022/02/14 14:53:23;;;;;;;5.00;3.23;;;14.10;1.00;;;;;;6305910;22;20395;-83
2022/02/14 14:55:50;;;;;;;4.70;3.30;;;14.00;1.00;;;;;;6284531;22;20404;-83
2022/02/14 14:58:18;;;;;;;4.70;3.70;;;14.00;1.00;;;;;;6286811;22;21668;-83
2022/02/14 15:00:45;;;;;;;6.70;5.10;;;14.00;1.00;;;;;;6282737;22;20453;-83
2022/02/14 15:03:13;;;;;;;4.90;3.73;;;14.00;1.00;;;;;;6255363;22;20458;-84
2022/02/14 15:05:42;;;;;;;5.70;4.10;;;14.00;1.00;;;;;;6284641;22;20391;-84
2022/02/14 15:08:10;;;;;;;4.93;3.13;;;13.90;1.00;;;;;;6284958;22;20371;-84
2022/02/14 15:10:36;;;;;;;5.50;3.90;;;13.80;1.00;;;;;;6282267;22;20952;-84
2022/02/14 15:13:04;;;;;;;5.63;3.50;;;13.60;1.00;;;;;;6283829;22;20408;-84
2022/02/14 15:15:31;;;;;;;6.00;3.67;;;13.60;1.00;;;;;;6284557;22;20386;-85
2022/02/14 15:17:59;;;;;;;5.50;3.93;;;13.60;1.00;;;;;;6280629;22;20423;-84
2022/02/14 15:20:28;;;;;;;4.70;4.20;;;13.60;1.00;;;;;;6280572;22;20407;-84
2022/02/14 15:22:55;;;;;;;6.00;3.67;;;13.50;1.00;;;;;;6258265;22;20429;-84
2022/02/14 15:25:22;;;;;;;7.80;4.20;;;13.50;1.00;;;;;;6286083;22;20438;-85
2022/02/14 15:27:52;;;;;;;5.80;3.60;;;13.50;1.00;;;;;;6285290;22;20403;-83
2022/02/14 15:30:19;;;;;;;3.97;3.20;;;13.50;1.00;;;;;;6302571;22;20370;-84
2022/02/14 15:32:46;;;;;;;7.03;3.90;;;13.40;1.00;;;;;;6306953;22;20469;-86
2022/02/14 15:35:13;;;;;;;4.43;3.83;;;13.40;1.00;;;;;;6306553;22;20428;-85
2022/02/14 15:37:42;;;;;;;6.33;4.10;;;13.30;1.00;;;;;;6306384;22;20372;-84
2022/02/14 15:40:11;;;;;;;4.93;3.97;;;13.10;1.00;;;;;;6304805;22;20481;-84
2022/02/14 15:42:38;;;;;;;5.30;4.20;;;12.90;1.00;;;;;;6302484;22;20430;-83
2022/02/14 15:45:05;;;;;;;5.40;4.73;;;12.80;1.00;;;;;;6290535;22;20732;-83
2022/02/14 15:47:32;;;;;;;6.00;3.97;;;12.70;1.00;;;;;;6284437;22;20854;-84
2022/02/14 15:49:59;;;;;;;5.43;4.77;;;12.60;1.00;;;;;;6283923;22;20471;-84
2022/02/14 15:52:25;;;;;;;6.50;4.40;;;12.50;1.00;;;;;;6284891;22;21549;-84
2022/02/14 15:54:56;;;;;;;6.73;4.87;;;12.30;1.00;;;;;;6282502;22;20367;-86
2022/02/14 15:57:23;;;;;;;5.73;4.40;;;12.20;1.00;;;;;;6287040;22;21735;-86
2022/02/14 15:59:50;;;;;;;7.13;4.87;;;12.10;1.00;;;;;;6282122;22;20446;-85
2022/02/14 16:02:17;;;;;;;6.00;4.30;;;12.00;1.00;;;;;;6257621;22;20427;-86
2022/02/14 16:04:43;;;;;;;8.03;4.67;;;12.00;1.00;;;;;;6282758;22;20367;-85
2022/02/14 16:07:11;;;;;;;4.87;4.30;;;11.90;1.00;;;;;;6285036;22;20972;-85
2022/02/14 16:09:38;;;;;;;5.33;4.67;;;11.90;1.00;;;;;;6283397;22;20436;-85
2022/02/14 16:12:07;;;;;;;5.13;4.47;;;11.90;1.00;;;;;;6281720;22;20387;-84
2022/02/14 16:14:34;;;;;;;6.70;4.70;;;11.90;1.00;;;;;;6288218;22;20452;-83
2022/02/14 16:17:01;;;;;;;6.17;4.60;;;11.90;1.00;;;;;;6291784;22;20439;-86
2022/02/14 16:19:28;;;;;;;5.63;5.03;;;11.90;1.00;;;;;;6293282;22;20960;-86
2022/02/14 16:21:55;;;;;;;7.73;4.30;;;11.90;1.00;;;;;;6262157;22;20423;-86
2022/02/14 16:24:23;;;;;;;9.30;4.93;;;11.90;1.00;;;;;;6249322;22;20429;-83
2022/02/14 16:26:55;;;;;;;6.53;5.37;;;11.80;1.00;;;;;;6277085;22;20363;-86
2022/02/14 16:29:25;;;;;;;5.77;4.47;;;11.80;1.00;;;;;;6250932;22;20411;-85
2022/02/14 16:31:53;;;;;;;5.43;4.50;;;11.80;1.00;;;;;;6277033;22;20514;-86
2022/02/14 16:34:20;;;;;;;8.13;5.10;;;11.80;1.00;;;;;;6273340;22;20689;-84
2022/02/14 16:36:47;;;;;;;5.90;5.30;;;11.70;1.00;;;;;;6286285;22;20411;-83
2022/02/14 16:39:14;;;;;;;5.27;4.77;;;11.70;1.00;;;;;;6289120;22;20406;-85
2022/02/14 16:41:40;;;;;;;7.70;5.37;;;11.70;1.00;;;;;;6279276;22;20519;-85
2022/02/14 16:44:08;;;;;;;7.30;5.20;;;11.70;1.00;;;;;;6274348;22;20403;-83
2022/02/14 16:46:37;;;;;;;6.27;4.63;;;11.60;1.00;;;;;;6282231;22;20407;-85
2022/02/14 16:49:04;;;;;;;7.20;6.13;;;11.60;1.00;;;;;;6281838;22;20891;-84
2022/02/14 16:51:31;;;;;;;5.73;4.50;;;11.60;1.00;;;;;;6255135;22;20506;-86
2022/02/14 16:53:58;;;;;;;5.90;4.63;;;11.60;1.00;;;;;;6281272;22;20387;-83